createdAt,value
2022-11-16T00:00:11.392Z,46.80
2022-11-16T00:03:06.159Z,31.40
2022-11-16T00:05:38.379Z,27.20
2022-11-16T00:08:10.445Z,26.40
2022-11-16T00:10:42.946Z,71.20
2022-11-16T00:13:15.113Z,87.80
2022-11-16T00:15:57.215Z,110.60
2022-11-16T00:18:29.628Z,70.90
2022-11-16T00:21:04.289Z,119.20
2022-11-16T00:23:39.383Z,109.30
2022-11-16T00:28:43.304Z,62.10
2022-11-16T00:31:15.728Z,40.80
2022-11-16T00:33:48.588Z,33.50
2022-11-16T00:36:21.371Z,37.50
2022-11-16T00:38:55.406Z,29.10
2022-11-16T00:41:27.704Z,29.50
2022-11-16T00:43:59.974Z,27.60
2022-11-16T00:46:32.448Z,23.60
2022-11-16T00:49:05.680Z,26.10
2022-11-16T00:51:39.218Z,29.90
2022-11-16T00:54:12.158Z,37.20
2022-11-16T00:56:44.809Z,31.20
2022-11-16T00:59:17.360Z,28.10
2022-11-16T01:01:49.755Z,24.50
2022-11-16T01:04:22.184Z,49.90
2022-11-16T01:06:54.384Z,48.00
2022-11-16T01:09:30.154Z,44.20
2022-11-16T01:12:11.105Z,59.40
2022-11-16T01:14:45.324Z,82.90
2022-11-16T01:17:17.565Z,84.40
2022-11-16T01:19:49.682Z,87.10
2022-11-16T01:22:21.953Z,56.10
2022-11-16T01:24:54.121Z,36.40
2022-11-16T01:27:27.801Z,26.90
2022-11-16T01:30:00.806Z,28.00
2022-11-16T01:32:33.236Z,73.90
2022-11-16T01:35:06.737Z,32.90
2022-11-16T01:37:40.262Z,24.60
2022-11-16T01:40:14.635Z,94.40
2022-11-16T01:42:48.462Z,83.00
2022-11-16T01:45:23.576Z,107.10
2022-11-16T01:47:58.212Z,56.10
2022-11-16T01:50:35.802Z,23.10
2022-11-16T01:53:10.171Z,19.40
2022-11-16T01:55:53.445Z,34.50
2022-11-16T01:58:34.500Z,33.40
2022-11-16T02:01:22.091Z,51.90
2022-11-16T02:03:57.089Z,46.40
2022-11-16T02:06:59.412Z,95.00
2022-11-16T02:09:58.480Z,68.80
2022-11-16T02:13:01.011Z,57.20
2022-11-16T02:18:30.101Z,26.50
2022-11-16T02:21:27.717Z,38.40
2022-11-16T02:24:12.508Z,29.60
2022-11-16T02:27:23.074Z,30.20
2022-11-16T02:29:57.267Z,22.80
2022-11-16T02:32:32.657Z,23.10
2022-11-16T02:35:11.074Z,43.00
2022-11-16T02:37:49.847Z,24.30
2022-11-16T02:40:25.162Z,20.40
2022-11-16T02:43:06.445Z,22.00
2022-11-16T02:45:42.993Z,19.00
2022-11-16T02:48:22.253Z,28.60
2022-11-16T02:50:55.010Z,91.10
2022-11-16T02:53:28.302Z,59.30
2022-11-16T02:58:34.053Z,21.90
2022-11-16T03:01:10.055Z,37.40
2022-11-16T03:03:46.601Z,26.60
2022-11-16T03:06:24.377Z,25.00
2022-11-16T03:09:05.580Z,64.00
2022-11-16T03:12:00.637Z,95.00
2022-11-16T03:14:41.740Z,63.90
2022-11-16T03:17:20.719Z,38.30
2022-11-16T03:20:00.341Z,43.90
2022-11-16T03:22:40.285Z,32.00
2022-11-16T03:25:17.494Z,25.80
2022-11-16T03:27:55.629Z,23.40
2022-11-16T03:30:33.149Z,23.40
2022-11-16T03:33:15.863Z,22.90
2022-11-16T03:35:55.227Z,76.30
2022-11-16T03:38:29.912Z,36.20
2022-11-16T03:41:07.062Z,39.30
2022-11-16T03:43:40.538Z,35.40
2022-11-16T03:46:13.472Z,33.90
2022-11-16T03:48:45.845Z,26.80
2022-11-16T03:51:28.511Z,25.40
2022-11-16T03:54:00.729Z,23.60
2022-11-16T03:56:33.587Z,23.70
2022-11-16T03:59:05.759Z,21.80
2022-11-16T04:01:43.292Z,20.90
2022-11-16T04:04:31.087Z,22.60
2022-11-16T04:07:21.623Z,20.70
2022-11-16T04:10:11.264Z,21.70
2022-11-16T04:13:04.626Z,18.40
2022-11-16T04:15:54.486Z,19.00
2022-11-16T04:18:44.754Z,17.60
2022-11-16T04:21:42.393Z,16.20
2022-11-16T04:24:18.352Z,15.40
2022-11-16T04:27:12.204Z,15.20
2022-11-16T04:29:45.240Z,15.50
2022-11-16T04:32:35.309Z,16.70
2022-11-16T04:35:25.905Z,16.20
2022-11-16T04:38:00.056Z,14.20
2022-11-16T04:40:38.312Z,14.00
2022-11-16T04:43:10.730Z,15.00
2022-11-16T04:46:02.302Z,15.40
2022-11-16T04:51:11.911Z,12.40
2022-11-16T04:53:44.329Z,11.60
2022-11-16T04:56:22.190Z,11.30
2022-11-16T04:58:54.562Z,12.00
2022-11-16T05:01:40.797Z,12.40
2022-11-16T05:04:13.584Z,13.50
2022-11-16T05:06:45.890Z,10.80
2022-11-16T05:09:18.339Z,10.10
2022-11-16T05:11:51.174Z,8.00
2022-11-16T05:14:23.418Z,12.30
2022-11-16T05:16:56.253Z,31.10
2022-11-16T05:19:46.776Z,14.60
2022-11-16T05:22:19.352Z,8.30
2022-11-16T05:24:51.650Z,12.80
2022-11-16T05:27:25.690Z,18.70
2022-11-16T05:29:58.576Z,11.50
2022-11-16T05:32:31.385Z,10.60
2022-11-16T05:35:04.879Z,15.80
2022-11-16T05:37:38.429Z,53.70
2022-11-16T05:40:13.788Z,14.20
2022-11-16T05:42:50.859Z,6.00
2022-11-16T05:45:23.408Z,17.30
2022-11-16T05:47:56.345Z,26.10
2022-11-16T05:50:28.580Z,42.90
2022-11-16T05:53:23.491Z,29.50
2022-11-16T05:55:56.187Z,22.00
2022-11-16T05:58:28.855Z,28.20
2022-11-16T06:01:02.351Z,32.70
2022-11-16T06:03:35.796Z,19.40
2022-11-16T06:08:59.164Z,17.50
2022-11-16T06:11:35.757Z,12.30
2022-11-16T06:14:09.255Z,9.90
2022-11-16T06:16:41.730Z,10.60
2022-11-16T06:19:14.485Z,9.50
2022-11-16T06:21:46.685Z,7.40
2022-11-16T06:24:22.355Z,15.70
2022-11-16T06:26:54.650Z,7.60
2022-11-16T06:29:27.177Z,7.90
2022-11-16T06:31:59.652Z,9.40
2022-11-16T06:34:31.974Z,11.70
2022-11-16T06:37:05.678Z,6.60
2022-11-16T06:39:38.180Z,5.20
2022-11-16T06:42:10.757Z,3.70
2022-11-16T06:44:43.823Z,6.20
2022-11-16T06:47:16.681Z,18.50
2022-11-16T06:49:48.926Z,11.60
2022-11-16T06:52:25.014Z,23.20
2022-11-16T06:54:57.230Z,19.90
2022-11-16T06:57:29.885Z,39.30
2022-11-16T07:00:02.438Z,11.40
2022-11-16T07:02:37.218Z,22.90
2022-11-16T07:05:10.854Z,38.70
2022-11-16T07:07:44.297Z,113.60
2022-11-16T07:10:16.743Z,84.20
2022-11-16T07:12:49.396Z,119.10
2022-11-16T07:15:22.412Z,92.80
2022-11-16T07:17:54.604Z,127.00
2022-11-16T07:20:27.215Z,159.80
2022-11-16T07:23:02.627Z,81.90
2022-11-16T07:25:35.692Z,55.70
2022-11-16T07:28:08.577Z,16.40
2022-11-16T07:30:41.492Z,24.40
2022-11-16T07:33:19.415Z,13.60
2022-11-16T07:36:18.031Z,18.60
2022-11-16T07:38:50.233Z,26.90
2022-11-16T07:41:23.337Z,25.60
2022-11-16T07:44:05.613Z,29.70
2022-11-16T07:46:48.165Z,28.10
2022-11-16T07:49:22.010Z,36.00
2022-11-16T07:51:58.609Z,17.10
2022-11-16T07:54:40.121Z,21.70
2022-11-16T07:57:12.752Z,8.20
2022-11-16T07:59:46.047Z,9.10
2022-11-16T08:02:18.216Z,10.50
2022-11-16T08:04:51.179Z,9.70
2022-11-16T08:10:00.271Z,26.20
2022-11-16T08:12:32.825Z,14.70
2022-11-16T08:15:05.536Z,12.50
2022-11-16T08:17:37.972Z,10.80
2022-11-16T08:20:12.751Z,8.70
2022-11-16T08:22:45.902Z,6.50
2022-11-16T08:25:18.505Z,11.90
2022-11-16T08:27:50.647Z,6.70
2022-11-16T08:30:24.020Z,10.40
2022-11-16T08:32:56.520Z,10.10
2022-11-16T08:35:28.739Z,13.60
2022-11-16T08:38:07.693Z,21.80
2022-11-16T08:40:58.215Z,19.50
2022-11-16T08:43:31.253Z,12.00
2022-11-16T08:46:04.424Z,10.50
2022-11-16T08:48:37.270Z,16.40
2022-11-16T08:51:19.669Z,15.30
2022-11-16T08:54:00.150Z,11.00
2022-11-16T08:56:32.934Z,7.60
2022-11-16T08:59:05.046Z,4.10
2022-11-16T09:01:37.591Z,5.60
2022-11-16T09:04:10.104Z,5.20
2022-11-16T09:06:42.326Z,8.40
2022-11-16T09:09:14.490Z,7.10
2022-11-16T09:11:46.586Z,3.20
2022-11-16T09:14:18.754Z,9.20
2022-11-16T09:16:50.946Z,5.80
2022-11-16T09:19:23.769Z,6.00
2022-11-16T09:21:55.848Z,8.60
2022-11-16T09:24:28.269Z,10.00
2022-11-16T09:27:02.026Z,7.80
2022-11-16T09:29:34.114Z,9.30
2022-11-16T09:32:06.904Z,11.00
2022-11-16T09:34:39.336Z,8.80
2022-11-16T09:37:11.518Z,4.60
2022-11-16T09:39:43.549Z,2.00
2022-11-16T09:42:29.854Z,7.00
2022-11-16T09:45:06.496Z,15.50
2022-11-16T09:47:49.242Z,30.10
2022-11-16T09:50:40.083Z,39.00
2022-11-16T09:53:27.733Z,16.30
2022-11-16T09:56:05.670Z,6.50
2022-11-16T09:58:45.206Z,4.80
2022-11-16T10:01:28.328Z,4.50
2022-11-16T10:04:06.691Z,11.60
2022-11-16T10:06:48.451Z,13.90
2022-11-16T10:09:21.118Z,7.80
2022-11-16T10:12:08.082Z,20.10
2022-11-16T10:15:37.546Z,12.70
2022-11-16T10:18:19.132Z,12.90
2022-11-16T10:21:08.835Z,7.00
2022-11-16T10:23:57.666Z,9.30
2022-11-16T10:26:38.679Z,12.30
2022-11-16T10:29:23.911Z,9.50
2022-11-16T10:32:11.626Z,11.90
2022-11-16T10:34:51.140Z,26.40
2022-11-16T10:37:25.664Z,45.00
2022-11-16T10:39:57.832Z,82.70
2022-11-16T10:42:36.146Z,29.40
2022-11-16T10:45:20.734Z,15.00
2022-11-16T10:47:58.326Z,8.30
2022-11-16T10:50:36.180Z,11.90
2022-11-16T10:53:13.132Z,11.20
2022-11-16T10:55:45.658Z,11.60
2022-11-16T10:58:17.816Z,4.50
2022-11-16T11:00:52.088Z,11.60
2022-11-16T11:03:34.016Z,122.10
2022-11-16T11:06:13.942Z,171.20
2022-11-16T11:08:46.083Z,21.40
2022-11-16T11:11:42.212Z,8.40
2022-11-16T11:14:16.633Z,5.90
2022-11-16T11:16:53.442Z,11.50
2022-11-16T11:19:29.959Z,11.80
2022-11-16T11:22:03.019Z,14.20
2022-11-16T11:24:44.301Z,11.20
2022-11-16T11:27:24.599Z,21.00
2022-11-16T11:29:59.775Z,11.60
2022-11-16T11:35:06.784Z,8.90
2022-11-16T11:37:40.657Z,21.00
2022-11-16T11:40:26.205Z,11.00
2022-11-16T11:45:48.010Z,7.50
2022-11-16T11:48:35.743Z,8.00
2022-11-16T11:51:18.048Z,15.00
2022-11-16T11:53:55.686Z,23.30
2022-11-16T11:56:30.423Z,22.80
2022-11-16T11:59:04.488Z,12.90
2022-11-16T12:01:51.352Z,8.60
2022-11-16T12:05:11.495Z,26.80
2022-11-16T12:07:57.640Z,12.10
2022-11-16T12:10:39.666Z,10.40
2022-11-16T12:13:34.597Z,4.10
2022-11-16T12:16:19.913Z,8.80
2022-11-16T12:19:04.986Z,5.30
2022-11-16T12:21:50.466Z,3.80
2022-11-16T12:24:42.628Z,5.10
2022-11-16T12:27:29.069Z,3.10
2022-11-16T12:30:09.472Z,13.60
2022-11-16T12:33:00.809Z,8.90
2022-11-16T12:35:44.704Z,6.20
2022-11-16T12:38:30.439Z,6.80
2022-11-16T12:41:21.577Z,12.80
2022-11-16T12:44:00.632Z,15.90
2022-11-16T12:46:46.649Z,18.60
2022-11-16T12:49:39.432Z,17.80
2022-11-16T12:52:26.366Z,12.20
2022-11-16T12:55:28.889Z,14.40
2022-11-16T12:58:19.726Z,9.20
2022-11-16T13:01:04.929Z,24.90
2022-11-16T13:03:43.060Z,15.10
2022-11-16T13:06:20.015Z,7.10
2022-11-16T13:09:02.883Z,7.10
2022-11-16T13:11:39.379Z,26.70
2022-11-16T13:14:18.356Z,60.20
2022-11-16T13:16:52.267Z,20.00
2022-11-16T13:19:25.258Z,9.00
2022-11-16T13:22:03.749Z,6.70
2022-11-16T13:24:53.833Z,6.10
2022-11-16T13:27:33.568Z,4.20
2022-11-16T13:30:16.037Z,5.60
2022-11-16T13:33:12.091Z,10.90
2022-11-16T13:35:44.676Z,5.60
2022-11-16T13:38:36.783Z,7.20
2022-11-16T13:41:29.530Z,4.40
2022-11-16T13:44:02.062Z,4.40
2022-11-16T13:46:55.662Z,8.10
2022-11-16T13:49:36.580Z,4.30
2022-11-16T13:52:23.146Z,5.60
2022-11-16T13:54:59.270Z,5.20
2022-11-16T14:00:25.169Z,3.30
2022-11-16T14:05:56.941Z,3.80
2022-11-16T14:08:52.586Z,5.40
2022-11-16T14:11:38.848Z,15.20
2022-11-16T14:14:13.921Z,62.30
2022-11-16T14:16:51.267Z,20.80
2022-11-16T14:19:55.210Z,14.60
2022-11-16T14:22:54.880Z,22.20
2022-11-16T14:25:34.862Z,14.40
2022-11-16T14:28:19.471Z,16.80
2022-11-16T14:31:01.856Z,9.80
2022-11-16T14:33:37.384Z,31.70
2022-11-16T14:36:11.541Z,10.70
2022-11-16T14:38:44.810Z,8.50
2022-11-16T14:41:24.200Z,9.80
2022-11-16T14:43:58.617Z,9.90
2022-11-16T14:46:34.422Z,5.70
2022-11-16T14:49:13.527Z,9.20
2022-11-16T14:51:49.789Z,9.60
2022-11-16T14:54:38.576Z,5.40
2022-11-16T14:57:19.780Z,7.80
2022-11-16T15:00:08.634Z,10.90
2022-11-16T15:02:42.076Z,7.70
2022-11-16T15:05:18.864Z,9.60
2022-11-16T15:07:54.082Z,11.00
2022-11-16T15:10:28.346Z,16.80
2022-11-16T15:13:00.615Z,7.50
2022-11-16T15:15:34.111Z,10.50
2022-11-16T15:18:14.963Z,5.50
2022-11-16T15:20:53.026Z,5.20
2022-11-16T15:23:30.317Z,5.00
2022-11-16T15:26:03.703Z,5.00
2022-11-16T15:28:35.886Z,4.80
2022-11-16T15:31:09.628Z,4.70
2022-11-16T15:33:45.252Z,5.70
2022-11-16T15:36:38.925Z,11.20
2022-11-16T15:39:17.749Z,14.30
2022-11-16T15:41:50.345Z,14.50
2022-11-16T15:44:24.542Z,35.00
2022-11-16T15:46:58.096Z,19.70
2022-11-16T15:49:33.588Z,41.00
2022-11-16T15:52:06.166Z,46.10
2022-11-16T15:54:52.096Z,48.70
2022-11-16T15:57:25.225Z,45.60
2022-11-16T15:59:58.853Z,72.30
2022-11-16T16:02:32.864Z,37.40
2022-11-16T16:05:05.107Z,55.40
2022-11-16T16:07:41.835Z,21.70
2022-11-16T16:10:25.782Z,11.70
2022-11-16T16:12:59.434Z,25.90
2022-11-16T16:15:36.268Z,24.20
2022-11-16T16:18:40.507Z,19.00
2022-11-16T16:21:14.002Z,25.40
2022-11-16T16:23:50.072Z,44.00
2022-11-16T16:26:23.102Z,34.30
2022-11-16T16:28:55.064Z,26.10
2022-11-16T16:31:26.959Z,48.50
2022-11-16T16:33:59.657Z,23.50
2022-11-16T16:36:31.978Z,37.30
2022-11-16T16:39:04.098Z,24.90
2022-11-16T16:41:36.290Z,31.10
2022-11-16T16:44:15.116Z,26.60
2022-11-16T16:46:47.080Z,22.80
2022-11-16T16:49:19.066Z,26.70
2022-11-16T16:51:50.999Z,47.60
2022-11-16T16:54:22.915Z,30.70
2022-11-16T16:56:54.829Z,31.50
2022-11-16T16:59:27.330Z,40.70
2022-11-16T17:02:00.476Z,36.90
2022-11-16T17:04:33.382Z,36.90
2022-11-16T17:07:05.430Z,42.60
2022-11-16T17:09:37.743Z,42.50
2022-11-16T17:12:11.498Z,43.40
2022-11-16T17:14:44.038Z,46.70
2022-11-16T17:17:15.963Z,40.90
2022-11-16T17:19:48.364Z,51.10
2022-11-16T17:22:20.992Z,61.70
2022-11-16T17:24:52.954Z,21.40
2022-11-16T17:27:24.951Z,38.50
2022-11-16T17:29:58.177Z,31.10
2022-11-16T17:32:30.818Z,35.80
2022-11-16T17:35:02.809Z,30.10
2022-11-16T17:37:34.699Z,14.30
2022-11-16T17:40:08.031Z,36.90
2022-11-16T17:42:39.928Z,68.10
2022-11-16T17:45:13.142Z,58.40
2022-11-16T17:47:45.234Z,37.50
2022-11-16T17:50:17.758Z,37.40
2022-11-16T17:52:49.723Z,16.40
2022-11-16T17:55:21.815Z,18.50
2022-11-16T17:57:53.700Z,22.70
2022-11-16T18:00:25.950Z,16.60
2022-11-16T18:02:57.806Z,13.00
2022-11-16T18:05:30.948Z,16.20
2022-11-16T18:08:02.912Z,21.20
2022-11-16T18:10:36.598Z,10.90
2022-11-16T18:13:08.861Z,153.60
2022-11-16T18:15:42.562Z,20.60
2022-11-16T18:18:14.735Z,27.10
2022-11-16T18:20:50.883Z,23.10
2022-11-16T18:23:23.063Z,20.60
2022-11-16T18:25:55.129Z,18.50
2022-11-16T18:28:27.100Z,36.20
2022-11-16T18:31:06.971Z,44.40
2022-11-16T18:33:40.073Z,33.50
2022-11-16T18:36:13.233Z,20.30
2022-11-16T18:38:45.236Z,34.60
2022-11-16T18:41:20.379Z,54.70
2022-11-16T18:43:53.900Z,28.90
2022-11-16T18:46:27.529Z,39.70
2022-11-16T18:49:00.129Z,39.00
2022-11-16T18:51:32.198Z,63.10
2022-11-16T18:54:04.289Z,64.20
2022-11-16T18:56:36.406Z,46.00
2022-11-16T18:59:08.317Z,29.00
2022-11-16T19:01:40.716Z,70.40
2022-11-16T19:04:13.294Z,67.20
2022-11-16T19:06:45.283Z,55.10
2022-11-16T19:09:17.357Z,40.60
2022-11-16T19:11:50.873Z,36.40
2022-11-16T19:14:22.736Z,39.60
2022-11-16T19:16:57.245Z,32.50
2022-11-16T19:22:02.032Z,21.10
2022-11-16T19:24:33.994Z,15.30
2022-11-16T19:27:06.122Z,43.00
2022-11-16T19:29:38.073Z,50.70
2022-11-16T19:32:10.087Z,27.40
2022-11-16T19:34:41.999Z,21.50
2022-11-16T19:37:14.144Z,20.00
2022-11-16T19:39:46.440Z,33.20
2022-11-16T19:42:18.391Z,32.40
2022-11-16T19:44:50.340Z,128.10
2022-11-16T19:47:24.294Z,53.50
2022-11-16T19:49:56.313Z,65.80
2022-11-16T19:52:28.328Z,155.00
2022-11-16T19:55:00.497Z,51.50
2022-11-16T19:57:32.845Z,63.20
2022-11-16T20:00:05.069Z,38.10
2022-11-16T20:02:38.820Z,25.20
2022-11-16T20:05:11.695Z,21.10
2022-11-16T20:07:44.780Z,26.80
2022-11-16T20:10:17.543Z,37.90
2022-11-16T20:12:50.145Z,19.80
2022-11-16T20:15:24.010Z,36.70
2022-11-16T20:17:56.053Z,33.40
2022-11-16T20:20:27.941Z,41.00
2022-11-16T20:22:59.916Z,27.40
2022-11-16T20:25:31.840Z,56.30
2022-11-16T20:28:04.695Z,131.30
2022-11-16T20:30:36.918Z,85.80
2022-11-16T20:33:08.893Z,18.90
2022-11-16T20:35:40.792Z,26.00
2022-11-16T20:38:12.782Z,79.40
2022-11-16T20:40:44.748Z,53.30
2022-11-16T20:43:17.093Z,66.60
2022-11-16T20:45:54.908Z,46.60
2022-11-16T20:48:26.834Z,65.90
2022-11-16T20:50:58.770Z,218.00
2022-11-16T20:53:30.759Z,81.80
2022-11-16T20:56:03.519Z,35.10
2022-11-16T20:58:36.298Z,21.30
2022-11-16T21:01:09.990Z,19.40
2022-11-16T21:03:44.648Z,7.10
2022-11-16T21:06:17.155Z,23.10
2022-11-16T21:08:49.478Z,18.40
2022-11-16T21:11:25.023Z,9.40
2022-11-16T21:14:15.115Z,27.40
2022-11-16T21:16:47.526Z,29.80
2022-11-16T21:19:19.540Z,21.60
2022-11-16T21:21:51.438Z,22.80
2022-11-16T21:24:24.926Z,22.70
2022-11-16T21:26:56.849Z,30.70
2022-11-16T21:29:29.120Z,22.00
2022-11-16T21:32:01.059Z,165.90
2022-11-16T21:34:38.780Z,117.00
2022-11-16T21:37:12.300Z,132.20
2022-11-16T21:39:44.552Z,239.10
2022-11-16T21:42:16.439Z,152.70
2022-11-16T21:44:48.318Z,58.50
2022-11-16T21:47:21.153Z,34.70
2022-11-16T21:50:24.842Z,16.20
2022-11-16T21:52:45.514Z,46.40
2022-11-16T21:55:17.554Z,105.00
2022-11-16T21:57:50.026Z,88.00
2022-11-16T22:00:23.170Z,77.60
2022-11-16T22:02:55.288Z,24.60
2022-11-16T22:05:45.171Z,13.30
2022-11-16T22:08:17.574Z,58.40
2022-11-16T22:10:53.384Z,39.60
2022-11-16T22:13:25.341Z,41.50
2022-11-16T22:15:57.385Z,28.10
2022-11-16T22:18:29.733Z,169.30
2022-11-16T22:21:02.178Z,73.90
2022-11-16T22:23:35.200Z,75.30
2022-11-16T22:26:10.284Z,37.70
2022-11-16T22:28:42.579Z,231.60
2022-11-16T22:31:16.002Z,182.60
2022-11-16T22:33:52.447Z,61.70
2022-11-16T22:36:24.361Z,37.00
2022-11-16T22:38:57.252Z,72.30
2022-11-16T22:41:29.228Z,22.60
2022-11-16T22:44:01.192Z,17.40
2022-11-16T22:46:33.155Z,30.00
2022-11-16T22:49:05.121Z,80.30
2022-11-16T22:51:37.210Z,64.30
2022-11-16T22:54:12.555Z,38.20
2022-11-16T22:56:45.209Z,139.00
2022-11-16T22:59:17.225Z,24.30
2022-11-16T23:01:49.390Z,15.00
2022-11-16T23:04:21.277Z,9.90
2022-11-16T23:06:56.766Z,8.20
2022-11-16T23:09:28.901Z,13.80
2022-11-16T23:12:18.441Z,7.30
2022-11-16T23:15:08.503Z,7.40
2022-11-16T23:17:40.623Z,6.20
2022-11-16T23:20:31.989Z,7.90
2022-11-16T23:23:21.518Z,5.50
2022-11-16T23:26:13.962Z,8.00
2022-11-16T23:28:46.025Z,8.80
2022-11-16T23:31:18.168Z,6.40
2022-11-16T23:33:50.240Z,6.10
2022-11-16T23:36:22.303Z,6.80
2022-11-16T23:38:54.411Z,7.30
2022-11-16T23:41:45.177Z,5.30
2022-11-16T23:44:17.373Z,4.80
2022-11-16T23:46:52.912Z,7.00
2022-11-16T23:49:25.164Z,5.80
2022-11-16T23:51:57.563Z,6.30
2022-11-16T23:54:29.648Z,4.00
2022-11-16T23:57:01.745Z,4.30
2022-11-16T23:59:33.704Z,5.40
